Time;durP1;ratioP1;P1;durP2;ratioP2;P2;SDS_P1;SDS_P2;PMS_P1;PMS_P2;Temp;Humidity;BMP_temperature;BMP_pressure;BME280_temperature;BME280_humidity;BME280_pressure;Samples;Min_cycle;Max_cycle;Signal;HPM_P1;HPM_P2
2023/07/25 00:02:27;;;;;;;7.43;5.90;;;;;;;23.00;54.65;98757.16;5065474;28;20603;-73
2023/07/25 00:04:58;;;;;;;9.13;5.90;;;;;;;22.98;54.98;98767.81;5066192;28;20316;-73
2023/07/25 00:07:26;;;;;;;7.47;6.18;;;;;;;22.94;55.26;98766.41;5064323;28;20311;-71
2023/07/25 00:09:55;;;;;;;8.48;6.15;;;;;;;22.85;55.64;98756.59;5067663;28;20659;-73
2023/07/25 00:12:23;;;;;;;8.10;5.90;;;;;;;22.80;55.79;98758.78;5060058;28;20300;-72
2023/07/25 00:14:53;;;;;;;7.75;6.20;;;;;;;22.76;55.83;98752.13;5067148;28;20688;-73
2023/07/25 00:17:21;;;;;;;8.60;6.93;;;;;;;22.75;56.34;98760.94;5067528;28;20201;-73
2023/07/25 00:19:48;;;;;;;8.27;6.15;;;;;;;22.70;56.32;98752.63;5069261;28;20213;-72
2023/07/25 00:22:17;;;;;;;8.52;6.22;;;;;;;22.65;56.62;98756.47;5066487;28;20202;-71
2023/07/25 00:24:45;;;;;;;7.30;6.00;;;;;;;22.64;56.66;98767.94;5062030;28;20278;-73
2023/07/25 00:27:13;;;;;;;10.02;5.70;;;;;;;22.60;56.93;98770.91;5059186;28;20597;-72
2023/07/25 00:29:41;;;;;;;8.20;6.38;;;;;;;22.54;57.25;98764.38;5066851;28;20225;-73
2023/07/25 00:32:11;;;;;;;10.23;6.35;;;;;;;22.53;57.22;98762.69;5068731;28;20324;-72
2023/07/25 00:34:39;;;;;;;9.95;6.10;;;;;;;22.51;57.44;98764.63;5053692;28;20723;-73
2023/07/25 00:37:06;;;;;;;9.13;5.95;;;;;;;22.49;57.40;98756.03;5063618;28;20217;-73
2023/07/25 00:39:35;;;;;;;8.75;6.43;;;;;;;22.49;57.43;98761.28;5066248;28;20298;-72
2023/07/25 00:42:03;;;;;;;8.23;6.30;;;;;;;22.46;57.68;98753.69;5066376;28;20300;-72
2023/07/25 00:44:32;;;;;;;10.00;6.32;;;;;;;22.40;58.04;98744.50;5070454;28;20233;-72
2023/07/25 00:47:00;;;;;;;10.20;6.68;;;;;;;22.34;58.18;98750.25;5070251;28;20218;-73
2023/07/25 00:49:30;;;;;;;7.68;6.20;;;;;;;22.29;58.50;98751.59;5070559;28;20687;-73
2023/07/25 00:51:58;;;;;;;8.23;6.10;;;;;;;22.23;58.86;98745.03;5065278;28;20201;-72
2023/07/25 00:54:26;;;;;;;7.93;5.93;;;;;;;22.18;59.14;98765.56;5070376;28;20208;-72
2023/07/25 00:56:54;;;;;;;9.23;6.47;;;;;;;22.15;59.46;98766.63;5064543;28;20251;-72
2023/07/25 00:59:22;;;;;;;8.35;5.88;;;;;;;22.12;59.63;98773.88;5073259;28;20260;-73
2023/07/25 01:01:50;;;;;;;9.25;6.68;;;;;;;22.09;59.91;98774.13;5066549;28;20296;-71
2023/07/25 01:04:18;;;;;;;8.63;5.97;;;;;;;22.05;60.06;98768.28;5059865;28;20331;-71
2023/07/25 01:06:48;;;;;;;8.35;6.72;;;;;;;22.04;59.99;98761.38;5065778;28;20201;-73
2023/07/25 01:09:16;;;;;;;8.85;6.05;;;;;;;22.06;60.24;98758.66;5067570;28;20586;-72
2023/07/25 01:11:44;;;;;;;8.15;6.57;;;;;;;22.05;60.28;98767.44;5072906;28;20749;-73
2023/07/25 01:14:12;;;;;;;8.25;6.47;;;;;;;22.04;60.56;98776.28;5067649;28;20201;-73
2023/07/25 01:16:41;;;;;;;8.13;6.25;;;;;;;22.00;60.56;98765.19;5069223;28;20205;-73
2023/07/25 01:19:11;;;;;;;9.55;6.72;;;;;;;21.98;60.73;98766.25;5069239;28;20731;-72
2023/07/25 01:21:39;;;;;;;9.77;7.10;;;;;;;21.97;60.76;98759.34;5066532;28;20254;-71
2023/07/25 01:24:08;;;;;;;7.97;6.07;;;;;;;21.95;60.78;98757.69;5070088;28;20209;-72
2023/07/25 01:26:37;;;;;;;8.27;6.55;;;;;;;21.95;61.03;98759.50;5064840;28;20209;-72
2023/07/25 01:29:05;;;;;;;7.63;6.38;;;;;;;21.93;61.03;98750.91;5069580;28;20236;-71
2023/07/25 01:31:33;;;;;;;9.25;6.20;;;;;;;21.90;61.08;98753.75;5068007;28;20769;-72
2023/07/25 01:34:01;;;;;;;8.13;6.10;;;;;;;21.86;61.33;98747.91;5071370;28;20206;-72
2023/07/25 01:36:29;;;;;;;10.05;7.07;;;;;;;21.82;61.46;98756.16;5063670;28;20211;-71
2023/07/25 01:38:58;;;;;;;8.27;6.80;;;;;;;21.83;61.44;98763.06;5066352;28;20662;-72
2023/07/25 01:41:27;;;;;;;11.18;7.10;;;;;;;21.79;61.77;98759.00;5069901;28;20233;-71
2023/07/25 01:43:55;;;;;;;7.82;6.22;;;;;;;21.78;61.84;98759.97;5072081;28;20205;-71
2023/07/25 01:46:23;;;;;;;7.35;5.80;;;;;;;21.77;61.92;98763.56;5068870;28;20270;-70
2023/07/25 01:48:51;;;;;;;10.50;6.57;;;;;;;21.74;62.08;98756.75;5067361;28;20233;-72
2023/07/25 01:51:19;;;;;;;8.77;6.18;;;;;;;21.74;62.12;98748.06;5066411;28;20216;-71
2023/07/25 01:53:47;;;;;;;9.52;6.63;;;;;;;21.70;62.11;98745.69;5066964;28;20202;-73
2023/07/25 01:56:15;;;;;;;9.93;6.57;;;;;;;21.70;62.39;98753.53;5070903;28;20556;-71
2023/07/25 01:58:45;;;;;;;8.73;6.88;;;;;;;21.66;62.39;98736.38;5063376;28;20651;-70
2023/07/25 02:01:13;;;;;;;7.75;6.32;;;;;;;21.64;62.69;98747.94;5068992;28;20213;-71
2023/07/25 02:03:41;;;;;;;8.95;6.68;;;;;;;21.60;62.69;98755.22;5061701;28;20209;-71
2023/07/25 02:06:09;;;;;;;7.38;5.85;;;;;;;21.59;62.72;98756.16;5063059;28;20316;-71
2023/07/25 02:08:37;;;;;;;8.77;6.68;;;;;;;21.59;63.01;98758.78;5064983;28;20291;-72
2023/07/25 02:11:05;;;;;;;7.90;6.95;;;;;;;21.58;62.82;98765.00;5069194;28;20614;-70
2023/07/25 02:13:34;;;;;;;10.75;6.53;;;;;;;21.55;62.98;98757.34;5065171;28;20201;-71
2023/07/25 02:16:03;;;;;;;8.55;6.72;;;;;;;21.53;63.10;98756.63;5056793;28;20205;-71
2023/07/25 02:18:31;;;;;;;8.35;6.53;;;;;;;21.53;63.25;98761.03;5071709;28;20205;-71
2023/07/25 02:21:00;;;;;;;8.10;5.82;;;;;;;21.51;63.52;98753.31;5069548;28;20209;-73
2023/07/25 02:23:30;;;;;;;8.95;6.65;;;;;;;21.51;63.29;98748.06;5066375;28;20213;-73
2023/07/25 02:25:58;;;;;;;8.57;6.65;;;;;;;21.50;63.49;98756.88;5063677;28;20225;-71
2023/07/25 02:28:26;;;;;;;9.60;6.93;;;;;;;21.45;63.76;98748.53;5070581;28;20224;-71
2023/07/25 02:30:54;;;;;;;8.15;6.55;;;;;;;21.42;63.89;98748.75;5059836;28;20224;-72
2023/07/25 02:33:23;;;;;;;9.10;6.97;;;;;;;21.35;64.04;98735.28;5069410;28;20543;-71
2023/07/25 02:35:57;;;;;;;9.15;7.22;;;;;;;21.35;64.02;98726.59;5065712;28;20652;-72
2023/07/25 02:38:25;;;;;;;11.50;7.50;;;;;;;21.33;64.34;98733.72;5070735;28;20255;-71
2023/07/25 02:40:53;;;;;;;9.73;6.78;;;;;;;21.31;64.30;98735.63;5067849;28;20205;-72
2023/07/25 02:43:22;;;;;;;11.02;6.30;;;;;;;21.30;64.28;98733.97;5065966;28;20210;-72
2023/07/25 02:45:50;;;;;;;10.15;6.95;;;;;;;21.27;64.46;98735.03;5068276;28;20232;-71
2023/07/25 02:48:19;;;;;;;9.95;6.88;;;;;;;21.24;64.54;98740.50;5071506;28;20205;-71
2023/07/25 02:50:48;;;;;;;9.77;7.18;;;;;;;21.22;64.81;98738.00;5067200;28;20617;-71
2023/07/25 02:53:16;;;;;;;9.68;7.07;;;;;;;21.20;64.70;98747.75;5069636;28;20201;-71
2023/07/25 02:55:44;;;;;;;11.25;7.35;;;;;;;21.17;65.05;98745.38;5063254;28;20193;-72
2023/07/25 02:58:13;;;;;;;13.10;6.90;;;;;;;21.15;65.04;98747.28;5067653;28;20201;-73
2023/07/25 03:00:41;;;;;;;8.80;7.20;;;;;;;21.14;64.92;98740.38;5068935;28;20678;-70
2023/07/25 03:03:09;;;;;;;9.20;7.18;;;;;;;21.12;65.35;98747.50;5069679;28;20677;-73
2023/07/25 03:05:37;;;;;;;12.73;7.22;;;;;;;21.10;65.23;98752.03;5067248;28;20706;-71
2023/07/25 03:08:07;;;;;;;9.55;6.93;;;;;;;21.07;65.42;98749.66;5069832;28;20201;-71
2023/07/25 03:10:35;;;;;;;9.10;6.43;;;;;;;21.06;65.45;98742.75;5067042;28;20209;-72
2023/07/25 03:13:03;;;;;;;10.02;7.20;;;;;;;21.09;65.44;98749.53;5057823;28;20798;-71
2023/07/25 03:15:31;;;;;;;9.82;7.30;;;;;;;21.07;65.37;98746.19;5060920;28;21387;-72
2023/07/25 03:17:59;;;;;;;9.93;7.47;;;;;;;21.05;65.57;98758.56;5067581;28;20205;-71
2023/07/25 03:20:28;;;;;;;9.05;6.55;;;;;;;21.02;65.51;98753.56;5066549;28;20206;-72
2023/07/25 03:22:56;;;;;;;10.77;7.57;;;;;;;21.03;65.79;98757.84;5067557;28;20201;-73
2023/07/25 03:25:25;;;;;;;9.57;6.90;;;;;;;21.02;65.64;98764.03;5066093;28;20201;-72
2023/07/25 03:27:53;;;;;;;11.65;8.05;;;;;;;21.00;65.41;98766.78;5070173;28;20202;-71
2023/07/25 03:30:21;;;;;;;12.55;7.38;;;;;;;21.01;65.50;98767.59;5064258;28;20326;-70
2023/07/25 03:32:49;;;;;;;11.93;7.88;;;;;;;21.03;65.44;98768.34;5063712;28;20231;-65
2023/07/25 03:35:18;;;;;;;9.27;7.25;;;;;;;21.01;65.45;98771.06;5067565;28;20198;-66
2023/07/25 03:37:46;;;;;;;11.45;7.35;;;;;;;20.98;65.56;98761.63;5069902;28;20660;-67
2023/07/25 03:40:14;;;;;;;10.02;7.28;;;;;;;20.97;65.69;98759.97;5066504;28;20308;-66
2023/07/25 03:42:43;;;;;;;10.63;7.13;;;;;;;20.97;65.64;98767.00;5068492;28;20212;-66
2023/07/25 03:45:12;;;;;;;11.52;7.45;;;;;;;20.99;65.50;98768.56;5062283;28;20706;-66
2023/07/25 03:47:41;;;;;;;10.93;7.53;;;;;;;21.00;65.74;98769.38;5065193;28;20222;-66
2023/07/25 03:50:09;;;;;;;10.68;7.90;;;;;;;21.04;65.34;98772.63;5063003;28;20206;-67
2023/07/25 03:52:38;;;;;;;14.02;7.95;;;;;;;21.03;65.22;98784.06;5064836;28;20205;-70
2023/07/25 03:55:07;;;;;;;10.38;7.57;;;;;;;21.02;65.35;98777.13;5063538;28;20573;-66
2023/07/25 03:57:35;;;;;;;11.88;7.47;;;;;;;21.01;65.24;98784.16;5070764;28;20197;-67
2023/07/25 04:00:06;;;;;;;12.32;7.15;;;;;;;21.01;65.12;98791.16;5068317;28;20209;-66
2023/07/25 04:02:34;;;;;;;10.30;7.15;;;;;;;20.99;65.42;98794.75;5062433;28;20205;-66
2023/07/25 04:05:02;;;;;;;8.23;6.68;;;;;;;20.97;65.33;98782.72;5063592;28;20217;-68
2023/07/25 04:07:30;;;;;;;11.52;7.28;;;;;;;20.98;65.02;98792.22;5064913;28;20236;-68
2023/07/25 04:09:58;;;;;;;9.82;6.90;;;;;;;20.95;64.99;98792.44;5063333;28;20244;-67
2023/07/25 04:12:26;;;;;;;11.77;7.20;;;;;;;20.94;64.98;98790.78;5065672;28;20274;-66
2023/07/25 04:14:55;;;;;;;10.23;7.57;;;;;;;20.94;64.65;98788.16;5067076;28;20203;-66
2023/07/25 04:17:25;;;;;;;9.93;7.13;;;;;;;20.95;64.81;98792.44;5070019;28;20725;-68
2023/07/25 04:19:56;;;;;;;10.27;6.85;;;;;;;21.00;64.23;98790.34;5067311;28;20842;-66
2023/07/25 04:22:24;;;;;;;8.70;6.68;;;;;;;21.10;63.92;98790.47;5064334;28;20202;-66
2023/07/25 04:24:52;;;;;;;9.80;6.95;;;;;;;21.19;63.48;98789.78;5066702;28;20236;-66
2023/07/25 04:27:21;;;;;;;10.18;7.18;;;;;;;21.23;62.95;98791.22;5070063;28;20228;-66
2023/07/25 04:29:49;;;;;;;9.40;6.43;;;;;;;21.36;62.55;98785.94;5065192;28;20209;-67
2023/07/25 04:32:17;;;;;;;10.90;6.80;;;;;;;21.55;61.63;98795.84;5071389;28;20714;-67
2023/07/25 04:34:47;;;;;;;9.40;6.88;;;;;;;21.67;61.11;98802.75;5070195;28;20676;-66
2023/07/25 04:37:15;;;;;;;8.98;6.53;;;;;;;21.79;60.65;98799.19;5071195;28;20258;-67
2023/07/25 04:39:43;;;;;;;8.60;6.75;;;;;;;21.85;60.32;98806.56;5064727;28;20205;-67
2023/07/25 04:42:11;;;;;;;7.25;5.97;;;;;;;21.83;60.15;98802.41;5046870;28;20209;-66
2023/07/25 04:44:39;;;;;;;10.40;6.82;;;;;;;21.86;59.85;98810.03;5073111;28;20209;-66
2023/07/25 04:47:07;;;;;;;7.78;6.30;;;;;;;21.89;59.68;98809.78;5066754;28;20251;-68
2023/07/25 04:49:35;;;;;;;6.70;5.82;;;;;;;21.93;59.37;98806.81;5066456;28;20205;-67
2023/07/25 04:52:06;;;;;;;8.95;5.90;;;;;;;21.97;59.19;98817.06;5052528;28;20209;-68
2023/07/25 04:54:35;;;;;;;9.43;6.20;;;;;;;22.00;59.18;98817.66;5072607;28;20690;-66
2023/07/25 04:57:03;;;;;;;11.55;5.63;;;;;;;22.11;59.03;98820.28;5066431;28;20198;-67
2023/07/25 04:59:32;;;;;;;9.90;5.93;;;;;;;22.28;58.15;98815.53;5063991;28;20213;-67
2023/07/25 05:02:00;;;;;;;7.47;5.65;;;;;;;22.23;57.55;98821.13;5064110;28;20668;-67
2023/07/25 05:04:28;;;;;;;9.75;6.05;;;;;;;22.31;57.37;98817.88;5066977;28;20197;-66
2023/07/25 05:06:56;;;;;;;7.45;5.50;;;;;;;22.37;57.06;98820.03;5064328;28;20236;-65
2023/07/25 05:09:26;;;;;;;8.73;5.90;;;;;;;22.63;56.16;98821.38;5071790;28;20197;-66
2023/07/25 05:11:54;;;;;;;7.05;5.15;;;;;;;22.98;55.15;98825.59;5068383;28;20656;-69
2023/07/25 05:14:22;;;;;;;8.23;5.25;;;;;;;23.46;53.76;98822.47;5062092;28;20213;-66
2023/07/25 05:16:50;;;;;;;7.43;4.93;;;;;;;24.18;51.59;98818.09;5060552;28;20206;-66
2023/07/25 05:19:18;;;;;;;5.68;4.68;;;;;;;25.06;48.63;98815.44;5063190;28;20209;-63
2023/07/25 05:21:47;;;;;;;4.90;3.80;;;;;;;25.67;46.88;98813.44;5063453;28;20216;-71
2023/07/25 05:24:15;;;;;;;8.13;4.15;;;;;;;26.12;45.69;98813.53;5065807;28;20664;-65
2023/07/25 05:26:44;;;;;;;5.28;4.25;;;;;;;26.52;44.83;98827.41;5062243;28;20572;-65
2023/07/25 05:29:15;;;;;;;4.90;4.05;;;;;;;27.25;42.51;98814.00;5064150;28;20251;-67
2023/07/25 05:31:49;;;;;;;5.82;3.72;;;;;;;28.26;40.68;98815.09;5064305;28;20229;-68
2023/07/25 05:34:18;;;;;;;6.25;3.85;;;;;;;29.54;37.17;98811.06;5061731;28;20574;-69
2023/07/25 05:36:46;;;;;;;8.23;4.05;;;;;;;30.52;35.53;98802.72;5064027;28;20201;-72
2023/07/25 05:39:15;;;;;;;3.97;3.20;;;;;;;31.44;34.06;98815.19;5067691;28;21227;-73
2023/07/25 05:41:42;;;;;;;3.65;3.25;;;;;;;31.62;33.11;98815.66;5068496;28;20680;-72
2023/07/25 05:44:12;;;;;;;4.90;3.40;;;;;;;31.02;33.14;98817.34;5068849;28;20241;-73
2023/07/25 05:46:40;;;;;;;5.53;3.28;;;;;;;29.93;34.30;98820.09;5060219;28;20575;-71
2023/07/25 05:49:08;;;;;;;3.38;3.05;;;;;;;28.59;37.33;98828.44;5066037;28;20213;-70
2023/07/25 05:51:42;;;;;;;6.18;3.50;;;;;;;27.74;39.28;98836.34;5067927;28;20613;-74
2023/07/25 05:54:10;;;;;;;4.45;3.78;;;;;;;27.25;40.90;98841.31;5069021;28;20683;-73
2023/07/25 05:56:39;;;;;;;3.80;3.42;;;;;;;27.19;41.48;98834.81;5061966;28;20660;-71
2023/07/25 05:59:07;;;;;;;3.28;2.92;;;;;;;27.38;40.86;98841.72;5065171;28;20197;-72
2023/07/25 06:01:40;;;;;;;8.75;3.60;;;;;;;27.48;40.42;98840.81;5071753;28;20640;-71
2023/07/25 06:04:08;;;;;;;3.75;3.00;;;;;;;27.23;41.56;98842.44;5067259;28;20209;-71
2023/07/25 06:06:36;;;;;;;3.63;3.00;;;;;;;27.24;41.27;98823.75;5066700;28;20216;-72
2023/07/25 06:09:04;;;;;;;5.82;3.60;;;;;;;27.16;40.62;98836.94;5072932;28;20208;-73
2023/07/25 06:11:32;;;;;;;5.15;3.38;;;;;;;26.83;41.72;98841.91;5071991;28;20216;-77
2023/07/25 06:14:04;;;;;;;5.07;3.60;;;;;;;26.43;42.45;98819.34;5064245;28;20295;-76
2023/07/25 06:16:36;;;;;;;4.07;3.47;;;;;;;26.57;42.81;98831.25;5072306;28;20244;-74
2023/07/25 06:19:05;;;;;;;3.42;3.08;;;;;;;26.86;41.97;98824.91;5072114;28;20208;-73
2023/07/25 06:21:33;;;;;;;6.57;3.85;;;;;;;27.46;41.35;98827.72;5065971;28;20208;-72
2023/07/25 06:24:02;;;;;;;5.78;3.33;;;;;;;28.16;39.63;98827.63;5073602;28;20217;-73
2023/07/25 06:26:30;;;;;;;3.92;2.90;;;;;;;28.78;37.22;98830.78;5071664;28;20201;-74
2023/07/25 06:28:59;;;;;;;4.82;2.92;;;;;;;29.36;36.89;98835.16;5070785;28;20572;-74
2023/07/25 06:31:27;;;;;;;4.40;3.05;;;;;;;30.22;35.17;98830.97;5078131;28;20610;-73
2023/07/25 06:33:55;;;;;;;2.80;2.60;;;;;;;31.17;33.46;98824.56;5054784;28;20267;-73
2023/07/25 06:36:26;;;;;;;3.15;2.83;;;;;;;32.34;30.70;98830.16;5073405;28;20217;-74
2023/07/25 06:38:54;;;;;;;4.22;3.10;;;;;;;33.35;29.89;98826.44;5073536;28;20725;-73
2023/07/25 06:41:24;;;;;;;3.30;2.72;;;;;;;34.56;27.55;98834.97;5073087;28;20308;-71
2023/07/25 06:43:52;;;;;;;4.40;2.70;;;;;;;35.55;26.48;98817.34;5072020;28;20213;-71
2023/07/25 06:46:36;;;;;;;3.53;2.88;;;;;;;36.79;25.15;98824.28;5066446;28;20901;-72
2023/07/25 06:49:04;;;;;;;2.60;2.40;;;;;;;37.74;22.73;98823.28;5065451;28;20205;-72
2023/07/25 06:51:33;;;;;;;3.95;2.80;;;;;;;38.51;22.86;98843.28;5064034;28;20265;-69
2023/07/25 06:54:01;;;;;;;4.32;2.30;;;;;;;38.22;22.23;98842.19;5065414;28;20731;-73
2023/07/25 06:56:29;;;;;;;2.85;2.30;;;;;;;38.71;21.47;98834.94;5062984;28;20573;-75
2023/07/25 06:59:00;;;;;;;2.55;2.35;;;;;;;38.76;20.81;98837.75;5063401;28;20228;-72
2023/07/25 07:01:28;;;;;;;2.70;2.20;;;;;;;38.56;21.65;98823.78;5065399;28;20283;-72
2023/07/25 07:03:59;;;;;;;3.85;2.47;;;;;;;39.12;21.21;98833.28;5063063;28;20197;-72
2023/07/25 07:06:27;;;;;;;2.55;2.35;;;;;;;39.84;20.51;98844.72;5064842;28;20220;-71
2023/07/25 07:08:57;;;;;;;3.88;2.30;;;;;;;40.08;20.07;98850.84;5068623;28;20201;-75
2023/07/25 07:11:25;;;;;;;2.33;2.13;;;;;;;40.60;19.56;98849.19;5066961;28;20205;-70
2023/07/25 07:13:54;;;;;;;3.20;2.47;;;;;;;41.12;18.98;98854.44;5062225;28;20208;-72
2023/07/25 07:16:25;;;;;;;2.38;2.17;;;;;;;41.47;18.51;98846.09;5067528;28;20288;-70
2023/07/25 07:18:52;;;;;;;4.47;1.90;;;;;;;41.33;18.67;98855.59;5064155;28;20628;-71
2023/07/25 07:21:20;;;;;;;1.92;1.83;;;;;;;41.57;18.14;98848.09;5064120;28;20664;-72
2023/07/25 07:23:48;;;;;;;1.90;1.80;;;;;;;41.99;17.89;98845.75;5061262;28;20205;-71
2023/07/25 07:26:20;;;;;;;2.30;2.10;;;;;;;42.17;17.40;98850.00;5059693;28;20198;-70
2023/07/25 07:28:48;;;;;;;2.20;2.00;;;;;;;41.99;18.13;98853.84;5064457;28;21662;-70
2023/07/25 07:31:23;;;;;;;2.03;1.90;;;;;;;41.73;17.78;98853.50;5064679;28;20200;-72
2023/07/25 07:33:51;;;;;;;5.00;1.90;;;;;;;41.90;17.76;98863.47;5063465;28;20192;-71
2023/07/25 07:36:19;;;;;;;2.08;1.83;;;;;;;42.01;17.41;98859.81;5059929;28;20287;-70
2023/07/25 07:38:51;;;;;;;5.18;1.88;;;;;;;41.90;17.58;98858.88;5060613;28;20215;-68
2023/07/25 07:41:20;;;;;;;2.60;1.60;;;;;;;41.82;17.29;98867.41;5063527;28;20205;-70
2023/07/25 07:43:48;;;;;;;1.92;1.83;;;;;;;41.74;17.30;98863.25;5069882;28;20197;-73
2023/07/25 07:46:16;;;;;;;4.00;1.80;;;;;;;41.91;17.26;98868.66;5061668;28;20350;-73
2023/07/25 07:48:45;;;;;;;1.88;1.65;;;;;;;42.24;16.96;98853.34;5066483;28;20493;-72
2023/07/25 07:51:13;;;;;;;2.78;1.52;;;;;;;42.61;16.56;98864.34;5062223;28;20339;-76
2023/07/25 07:53:41;;;;;;;2.67;1.80;;;;;;;42.29;16.78;98861.53;5065130;28;20208;-72
2023/07/25 07:56:10;;;;;;;1.45;1.35;;;;;;;42.37;16.82;98857.56;5061323;28;20628;-71
2023/07/25 07:58:40;;;;;;;1.55;1.45;;;;;;;42.35;16.64;98857.84;5065996;28;20266;-70
2023/07/25 08:01:15;;;;;;;1.83;1.50;;;;;;;42.28;16.41;98864.53;5061696;28;20204;-74
2023/07/25 08:03:52;;;;;;;2.03;1.40;;;;;;;41.38;17.14;98861.88;5062936;28;20318;-71
2023/07/25 08:06:20;;;;;;;1.88;1.60;;;;;;;40.93;17.37;98870.03;5061891;28;20205;-72
2023/07/25 08:08:48;;;;;;;1.60;1.50;;;;;;;40.15;18.34;98869.66;5062585;28;20562;-75
2023/07/25 08:11:16;;;;;;;1.45;1.35;;;;;;;38.90;19.17;98863.47;5064550;28;20916;-72
2023/07/25 08:13:47;;;;;;;1.55;1.45;;;;;;;37.67;20.46;98869.06;5059800;28;20731;-71
2023/07/25 08:16:27;;;;;;;1.70;1.42;;;;;;;35.64;23.36;98868.84;5064953;28;20297;-76
2023/07/25 08:18:57;;;;;;;1.35;1.25;;;;;;;34.00;25.30;98877.91;5063066;28;20221;-73
2023/07/25 08:21:26;;;;;;;2.15;1.50;;;;;;;33.01;26.93;98887.78;5062412;28;20687;-71
2023/07/25 08:23:56;;;;;;;4.88;1.58;;;;;;;32.27;27.95;98893.22;5062684;28;20236;-72
2023/07/25 08:26:24;;;;;;;1.63;1.50;;;;;;;31.25;29.36;98891.03;5062431;28;20204;-67
2023/07/25 08:28:55;;;;;;;2.05;1.63;;;;;;;30.40;30.63;98881.22;5066668;28;20492;-69
2023/07/25 08:31:27;;;;;;;1.60;1.50;;;;;;;29.94;31.86;98883.69;5060708;28;20825;-71
2023/07/25 08:33:55;;;;;;;1.73;1.63;;;;;;;29.53;32.57;98893.50;5060274;28;20300;-72
2023/07/25 08:36:23;;;;;;;3.97;1.98;;;;;;;28.94;33.77;98884.84;5059654;28;20226;-68
2023/07/25 08:38:56;;;;;;;3.28;1.58;;;;;;;28.46;34.74;98883.72;5061436;28;20584;-70
2023/07/25 08:41:35;;;;;;;1.88;1.30;;;;;;;28.22;35.59;98879.97;5062830;28;20206;-70
2023/07/25 08:44:09;;;;;;;2.03;1.48;;;;;;;28.26;35.61;98868.06;5058355;28;20210;-73
2023/07/25 08:46:42;;;;;;;2.17;1.58;;;;;;;28.33;35.31;98878.84;5061899;28;20707;-72
2023/07/25 08:49:15;;;;;;;3.42;1.63;;;;;;;27.79;36.04;98865.84;5060871;28;20212;-69
2023/07/25 08:51:44;;;;;;;2.33;1.38;;;;;;;27.67;36.54;98856.47;5065529;28;20273;-72
2023/07/25 08:54:24;;;;;;;1.40;1.30;;;;;;;27.60;36.09;98852.78;5061619;28;20515;-73
2023/07/25 08:56:55;;;;;;;3.42;1.45;;;;;;;27.61;36.14;98857.91;5058663;28;20227;-71
2023/07/25 08:59:26;;;;;;;4.95;1.40;;;;;;;27.52;36.27;98861.50;5061973;28;20249;-71
2023/07/25 09:01:58;;;;;;;2.17;1.25;;;;;;;27.49;35.81;98861.00;5060900;28;20201;-71
2023/07/25 09:04:28;;;;;;;2.50;0.98;;;;;;;27.59;35.71;98869.66;5065920;28;20678;-71
2023/07/25 09:06:56;;;;;;;1.77;1.58;;;;;;;27.61;35.78;98870.31;5073751;28;20215;-71
2023/07/25 09:09:24;;;;;;;2.25;1.00;;;;;;;27.14;36.36;98862.72;5069678;28;20660;-71
2023/07/25 09:11:54;;;;;;;2.63;1.30;;;;;;;27.12;36.92;98862.03;5067856;28;20612;-69
2023/07/25 09:14:22;;;;;;;4.82;1.60;;;;;;;27.04;37.14;98872.50;5065608;28;20287;-70
2023/07/25 09:16:51;;;;;;;1.90;1.63;;;;;;;26.96;36.89;98884.66;5072323;28;20205;-70
2023/07/25 09:19:22;;;;;;;4.20;1.80;;;;;;;27.11;36.71;98890.28;5059496;28;20573;-73
2023/07/25 09:21:53;;;;;;;1.75;1.35;;;;;;;27.20;36.58;98899.94;5068504;28;20280;-72
2023/07/25 09:24:22;;;;;;;4.70;1.48;;;;;;;27.28;36.46;98901.81;5059677;28;20641;-70
2023/07/25 09:26:53;;;;;;;1.65;1.20;;;;;;;27.30;36.16;98910.44;5064326;28;20680;-70
2023/07/25 09:29:26;;;;;;;1.45;1.33;;;;;;;27.05;35.45;98919.09;5063894;28;20202;-71
2023/07/25 09:31:56;;;;;;;1.20;1.10;;;;;;;27.10;35.57;98916.81;5064269;28;20258;-73
2023/07/25 09:34:25;;;;;;;1.35;1.10;;;;;;;27.22;35.84;98910.38;5059332;28;20290;-72
2023/07/25 09:37:05;;;;;;;1.50;1.20;;;;;;;27.51;35.34;98899.56;5065279;28;20210;-74
2023/07/25 09:39:34;;;;;;;1.45;1.35;;;;;;;27.72;34.95;98896.53;5062000;28;20235;-71
2023/07/25 09:42:02;;;;;;;1.25;1.15;;;;;;;28.23;33.68;98894.03;5062518;28;20194;-71
2023/07/25 09:44:34;;;;;;;7.00;1.75;;;;;;;28.75;32.86;98907.16;5062523;28;20280;-71
2023/07/25 09:47:03;;;;;;;1.95;1.10;;;;;;;29.22;32.25;98902.16;5064792;28;20656;-69
2023/07/25 09:49:32;;;;;;;1.00;1.00;;;;;;;29.59;31.23;98901.66;5068285;28;20201;-70
2023/07/25 09:52:12;;;;;;;1.42;1.27;;;;;;;30.16;30.48;98889.25;5069918;28;20907;-68
2023/07/25 09:54:45;;;;;;;1.38;1.27;;;;;;;31.71;28.51;98883.81;5065738;28;20213;-74
2023/07/25 09:57:13;;;;;;;1.05;0.95;;;;;;;33.14;25.97;98877.19;5067819;28;20251;-70
2023/07/25 09:59:41;;;;;;;2.38;1.10;;;;;;;33.90;24.91;98874.72;5064067;28;20232;-68
2023/07/25 10:02:11;;;;;;;1.70;1.60;;;;;;;34.46;24.12;98869.25;5067199;28;20714;-70
2023/07/25 10:04:41;;;;;;;1.95;1.40;;;;;;;34.40;23.82;98874.59;5063352;28;20224;-71
2023/07/25 10:07:10;;;;;;;1.00;0.95;;;;;;;35.07;23.13;98876.47;5064516;28;20213;-68
2023/07/25 10:09:38;;;;;;;4.18;1.25;;;;;;;35.71;22.07;98889.25;5064653;28;20584;-68
2023/07/25 10:12:08;;;;;;;1.73;1.20;;;;;;;36.08;21.56;98886.94;5067276;28;20212;-71
2023/07/25 10:14:38;;;;;;;2.08;1.10;;;;;;;36.01;20.67;98878.94;5067373;28;20190;-70
2023/07/25 10:17:07;;;;;;;3.63;1.10;;;;;;;35.88;20.79;98878.91;5065326;28;20207;-72
2023/07/25 10:19:51;;;;;;;1.30;1.20;;;;;;;36.01;21.88;98876.25;5065247;28;20677;-72
2023/07/25 10:22:35;;;;;;;1.50;1.20;;;;;;;36.59;20.77;98877.25;5060126;28;20208;-71
2023/07/25 10:25:08;;;;;;;1.00;0.90;;;;;;;36.38;20.74;98871.16;5064643;28;20673;-72
2023/07/25 10:27:36;;;;;;;2.20;0.82;;;;;;;36.95;19.84;98869.44;5060816;28;20198;-72
2023/07/25 10:30:23;;;;;;;1.30;1.20;;;;;;;37.26;19.92;98889.25;5069301;28;20197;-72
2023/07/25 10:32:52;;;;;;;1.85;1.50;;;;;;;36.69;19.90;98873.06;5067099;28;20274;-72
2023/07/25 10:35:47;;;;;;;5.97;1.15;;;;;;;37.39;19.55;98877.56;5066911;28;20731;-75
2023/07/25 10:38:21;;;;;;;2.42;1.35;;;;;;;38.29;18.40;98861.75;5066283;28;20205;-76
2023/07/25 10:40:54;;;;;;;2.85;1.05;;;;;;;37.86;18.22;98868.03;5064538;28;20205;-69
2023/07/25 10:43:26;;;;;;;1.50;1.40;;;;;;;37.17;19.60;98864.53;5069309;28;20250;-70
2023/07/25 10:45:55;;;;;;;1.20;0.93;;;;;;;36.52;19.86;98875.44;5065357;28;20350;-72
2023/07/25 10:48:27;;;;;;;1.95;1.25;;;;;;;36.50;19.88;98887.44;5064452;28;20233;-72
2023/07/25 10:50:57;;;;;;;2.00;1.10;;;;;;;36.19;20.19;98877.41;5066773;28;20202;-70
2023/07/25 10:53:26;;;;;;;1.80;1.27;;;;;;;35.05;21.04;98892.72;5067659;28;20656;-70
2023/07/25 10:56:24;;;;;;;;;;;;;;;;;;;;;
2023/07/25 10:59:04;;;;;;;1.33;1.23;;;;;;;34.84;21.75;98890.19;5065199;28;20262;-70
2023/07/25 11:01:36;;;;;;;1.23;1.13;;;;;;;34.30;21.96;98883.81;5067189;28;20217;-70
2023/07/25 11:04:24;;;;;;;1.45;1.23;;;;;;;33.86;22.35;98889.50;5061494;28;20205;-70
2023/07/25 11:07:03;;;;;;;4.57;1.42;;;;;;;34.00;22.47;98882.44;5062082;28;20213;-71
2023/07/25 11:09:32;;;;;;;1.38;1.17;;;;;;;33.96;22.58;98886.50;5061296;28;20664;-69
2023/07/25 11:12:00;;;;;;;1.83;1.17;;;;;;;34.02;22.28;98885.72;5068727;28;20207;-73
2023/07/25 11:14:29;;;;;;;2.00;1.38;;;;;;;33.63;23.27;98893.25;5065159;28;20202;-71
2023/07/25 11:16:58;;;;;;;1.60;1.50;;;;;;;33.34;23.01;98874.72;5065005;28;20282;-74
2023/07/25 11:19:27;;;;;;;1.48;1.20;;;;;;;33.34;23.28;98872.06;5067534;28;20978;-73
2023/07/25 11:21:57;;;;;;;2.25;1.30;;;;;;;33.71;22.75;98880.78;5070583;28;20197;-71
2023/07/25 11:24:25;;;;;;;4.50;1.77;;;;;;;33.52;22.85;98867.09;5067838;28;20205;-74
2023/07/25 11:26:55;;;;;;;2.65;1.40;;;;;;;33.54;23.13;98870.38;5068359;28;20204;-71
2023/07/25 11:29:23;;;;;;;1.40;1.30;;;;;;;33.71;22.92;98883.44;5065316;28;20546;-69
2023/07/25 11:31:52;;;;;;;1.27;1.17;;;;;;;33.76;23.30;98884.50;5066064;28;20228;-70
2023/07/25 11:34:21;;;;;;;1.23;1.05;;;;;;;33.22;23.27;98884.28;5064569;28;20554;-69
2023/07/25 11:36:49;;;;;;;2.42;1.35;;;;;;;32.99;24.15;98885.28;5061722;28;20762;-72
2023/07/25 11:39:19;;;;;;;1.30;1.10;;;;;;;32.87;24.22;98884.09;5064893;28;20229;-72
2023/07/25 11:41:47;;;;;;;2.55;1.10;;;;;;;32.15;25.19;98888.38;5065338;28;20210;-72
2023/07/25 11:44:18;;;;;;;1.92;1.73;;;;;;;31.63;25.62;98889.22;5064008;28;20205;-73
2023/07/25 11:46:51;;;;;;;2.00;1.55;;;;;;;30.79;26.91;98888.38;5068944;28;20225;-70